Terminal Aerodrome Forecast
Issued by NWS

Home | Current Version | Previous Version | Text Only | Print | Product List | Glossary On
Versions: 1 2 3 4 5 6 7 8 9 10 11 12 13 14 15 16 17 18 19 20 21 22 23 24 25 26 27 28 29 30
000
FTUS43 KBIS 271738
TAFMOT
TAF
KMOT 271738Z 2718/2818 36007KT P6SM VCSH BKN025
     FM272000 02006KT P6SM VCTS SCT030 BKN050CB
     FM280000 03009KT P6SM BKN080
     FM280500 03008KT P6SM BKN015
     FM280900 02005KT P6SM BKN005=

USA.gov is the U.S. government's official web portal to all federal, state and local government web resources and services.